Terminal Aerodrome Forecast
Issued by NWS Billings, MT

Home | Current Version | Previous Version | Text Only | Print | Product List | Glossary On
Versions: 1 2 3 4 5 6 7 8 9 10 11 12
000
FTUS45 KBYZ 302328
TAFSHR
TAF
KSHR 302328Z 3100/3124 VRB05KT P6SM VCSH BKN024 OVC035
     FM310200 VRB05KT 6SM -RA BR BKN020 OVC030
     FM310600 30009KT 4SM -RA BR BKN008 OVC020
     FM311200 32011G20KT 2SM -RA BR BKN004 OVC020
     FM311600 33011G20KT 4SM -RA BR BKN008 OVC020=

USA.gov is the U.S. government's official web portal to all federal, state and local government web resources and services.